sensor_id;sensor_type;location;lat;lon;timestamp;P1;durP1;ratioP1;P2;durP2;ratioP2
62050;SDS011;48008;51.204;6.766;2022-12-18T00:02:13;29.73;;;12.43;;
62050;SDS011;48008;51.204;6.766;2022-12-18T00:04:40;27.65;;;10.95;;
62050;SDS011;48008;51.204;6.766;2022-12-18T00:07:07;28.85;;;11.10;;
62050;SDS011;48008;51.204;6.766;2022-12-18T00:09:34;29.77;;;11.90;;
62050;SDS011;48008;51.204;6.766;2022-12-18T00:12:00;23.92;;;10.45;;
62050;SDS011;48008;51.204;6.766;2022-12-18T00:14:27;28.35;;;10.85;;
62050;SDS011;48008;51.204;6.766;2022-12-18T00:16:54;29.00;;;11.18;;
62050;SDS011;48008;51.204;6.766;2022-12-18T00:19:20;28.42;;;10.30;;
62050;SDS011;48008;51.204;6.766;2022-12-18T00:21:47;28.48;;;11.55;;
62050;SDS011;48008;51.204;6.766;2022-12-18T00:24:14;25.92;;;10.25;;
62050;SDS011;48008;51.204;6.766;2022-12-18T00:26:42;26.98;;;10.52;;
62050;SDS011;48008;51.204;6.766;2022-12-18T00:29:10;25.05;;;10.55;;
62050;SDS011;48008;51.204;6.766;2022-12-18T00:31:42;25.67;;;10.80;;
62050;SDS011;48008;51.204;6.766;2022-12-18T00:34:10;26.15;;;11.00;;
62050;SDS011;48008;51.204;6.766;2022-12-18T00:36:39;26.63;;;10.48;;
62050;SDS011;48008;51.204;6.766;2022-12-18T00:39:07;29.25;;;11.20;;
62050;SDS011;48008;51.204;6.766;2022-12-18T00:41:34;27.98;;;10.05;;
62050;SDS011;48008;51.204;6.766;2022-12-18T00:44:21;24.13;;;10.45;;
62050;SDS011;48008;51.204;6.766;2022-12-18T00:46:48;27.58;;;9.38;;
62050;SDS011;48008;51.204;6.766;2022-12-18T00:49:18;24.63;;;10.35;;
62050;SDS011;48008;51.204;6.766;2022-12-18T00:51:46;22.40;;;9.68;;
62050;SDS011;48008;51.204;6.766;2022-12-18T00:54:14;24.95;;;10.60;;
62050;SDS011;48008;51.204;6.766;2022-12-18T00:56:41;25.45;;;10.90;;
62050;SDS011;48008;51.204;6.766;2022-12-18T00:59:14;28.17;;;11.77;;
62050;SDS011;48008;51.204;6.766;2022-12-18T01:01:40;23.90;;;9.95;;
62050;SDS011;48008;51.204;6.766;2022-12-18T01:04:07;26.98;;;10.63;;
62050;SDS011;48008;51.204;6.766;2022-12-18T01:06:34;23.75;;;11.13;;
62050;SDS011;48008;51.204;6.766;2022-12-18T01:09:01;23.38;;;10.25;;
62050;SDS011;48008;51.204;6.766;2022-12-18T01:11:28;27.48;;;10.40;;
62050;SDS011;48008;51.204;6.766;2022-12-18T01:13:55;24.13;;;10.23;;
62050;SDS011;48008;51.204;6.766;2022-12-18T01:16:22;22.10;;;9.73;;
62050;SDS011;48008;51.204;6.766;2022-12-18T01:18:51;26.00;;;10.82;;
62050;SDS011;48008;51.204;6.766;2022-12-18T01:21:20;21.90;;;9.75;;
62050;SDS011;48008;51.204;6.766;2022-12-18T01:23:51;23.73;;;9.68;;
62050;SDS011;48008;51.204;6.766;2022-12-18T01:26:19;23.38;;;10.10;;
62050;SDS011;48008;51.204;6.766;2022-12-18T01:28:46;29.83;;;11.18;;
62050;SDS011;48008;51.204;6.766;2022-12-18T01:31:22;23.88;;;10.13;;
62050;SDS011;48008;51.204;6.766;2022-12-18T01:33:50;23.30;;;9.45;;
62050;SDS011;48008;51.204;6.766;2022-12-18T01:36:19;23.50;;;10.35;;
62050;SDS011;48008;51.204;6.766;2022-12-18T01:38:48;23.90;;;10.02;;
62050;SDS011;48008;51.204;6.766;2022-12-18T01:41:18;27.77;;;10.52;;
62050;SDS011;48008;51.204;6.766;2022-12-18T01:43:55;26.25;;;11.02;;
62050;SDS011;48008;51.204;6.766;2022-12-18T01:46:24;21.48;;;9.00;;
62050;SDS011;48008;51.204;6.766;2022-12-18T01:48:56;20.87;;;9.77;;
62050;SDS011;48008;51.204;6.766;2022-12-18T01:51:27;24.25;;;9.70;;
62050;SDS011;48008;51.204;6.766;2022-12-18T01:53:56;25.58;;;10.15;;
62050;SDS011;48008;51.204;6.766;2022-12-18T01:56:25;24.73;;;9.63;;
62050;SDS011;48008;51.204;6.766;2022-12-18T01:59:07;23.42;;;10.18;;
62050;SDS011;48008;51.204;6.766;2022-12-18T02:01:36;22.92;;;10.30;;
62050;SDS011;48008;51.204;6.766;2022-12-18T02:04:35;22.33;;;9.05;;
62050;SDS011;48008;51.204;6.766;2022-12-18T02:06:55;22.20;;;9.95;;
62050;SDS011;48008;51.204;6.766;2022-12-18T02:09:34;23.85;;;9.68;;
62050;SDS011;48008;51.204;6.766;2022-12-18T02:12:11;22.75;;;8.85;;
62050;SDS011;48008;51.204;6.766;2022-12-18T02:14:50;21.23;;;9.32;;
62050;SDS011;48008;51.204;6.766;2022-12-18T02:17:22;21.83;;;8.75;;
62050;SDS011;48008;51.204;6.766;2022-12-18T02:20:04;22.20;;;9.70;;
62050;SDS011;48008;51.204;6.766;2022-12-18T02:22:49;21.48;;;9.60;;
62050;SDS011;48008;51.204;6.766;2022-12-18T02:25:33;23.13;;;9.68;;
62050;SDS011;48008;51.204;6.766;2022-12-18T02:28:12;22.00;;;9.35;;
62050;SDS011;48008;51.204;6.766;2022-12-18T02:30:43;22.65;;;9.50;;
62050;SDS011;48008;51.204;6.766;2022-12-18T02:33:14;22.98;;;9.77;;
62050;SDS011;48008;51.204;6.766;2022-12-18T02:35:42;21.83;;;9.27;;
62050;SDS011;48008;51.204;6.766;2022-12-18T02:38:12;22.10;;;8.88;;
62050;SDS011;48008;51.204;6.766;2022-12-18T02:40:42;28.92;;;9.75;;
62050;SDS011;48008;51.204;6.766;2022-12-18T02:43:13;20.10;;;8.95;;
62050;SDS011;48008;51.204;6.766;2022-12-18T02:45:46;21.45;;;8.90;;
62050;SDS011;48008;51.204;6.766;2022-12-18T02:48:15;24.30;;;8.82;;
62050;SDS011;48008;51.204;6.766;2022-12-18T02:50:47;22.50;;;8.80;;
62050;SDS011;48008;51.204;6.766;2022-12-18T02:53:30;24.15;;;9.13;;
62050;SDS011;48008;51.204;6.766;2022-12-18T02:56:09;19.58;;;8.70;;
62050;SDS011;48008;51.204;6.766;2022-12-18T02:59:00;19.65;;;8.52;;
62050;SDS011;48008;51.204;6.766;2022-12-18T03:01:56;20.95;;;8.98;;
62050;SDS011;48008;51.204;6.766;2022-12-18T03:04:34;22.38;;;9.50;;
62050;SDS011;48008;51.204;6.766;2022-12-18T03:07:11;19.27;;;9.07;;
62050;SDS011;48008;51.204;6.766;2022-12-18T03:09:46;21.75;;;8.82;;
62050;SDS011;48008;51.204;6.766;2022-12-18T03:12:18;21.17;;;8.70;;
62050;SDS011;48008;51.204;6.766;2022-12-18T03:14:53;19.40;;;8.48;;
62050;SDS011;48008;51.204;6.766;2022-12-18T03:17:26;18.77;;;8.68;;
62050;SDS011;48008;51.204;6.766;2022-12-18T03:19:58;20.08;;;9.20;;
62050;SDS011;48008;51.204;6.766;2022-12-18T03:22:32;20.55;;;8.25;;
62050;SDS011;48008;51.204;6.766;2022-12-18T03:25:03;25.13;;;9.23;;
62050;SDS011;48008;51.204;6.766;2022-12-18T03:27:33;19.85;;;8.82;;
62050;SDS011;48008;51.204;6.766;2022-12-18T03:30:08;19.65;;;8.80;;
62050;SDS011;48008;51.204;6.766;2022-12-18T03:32:41;21.10;;;9.13;;
62050;SDS011;48008;51.204;6.766;2022-12-18T03:35:14;19.98;;;8.02;;
62050;SDS011;48008;51.204;6.766;2022-12-18T03:37:45;18.10;;;8.05;;
62050;SDS011;48008;51.204;6.766;2022-12-18T03:40:12;17.95;;;8.45;;
62050;SDS011;48008;51.204;6.766;2022-12-18T03:42:43;17.92;;;8.63;;
62050;SDS011;48008;51.204;6.766;2022-12-18T03:45:34;20.00;;;8.23;;
62050;SDS011;48008;51.204;6.766;2022-12-18T03:48:07;18.58;;;8.00;;
62050;SDS011;48008;51.204;6.766;2022-12-18T03:50:49;16.17;;;7.47;;
62050;SDS011;48008;51.204;6.766;2022-12-18T03:53:55;20.42;;;8.77;;
62050;SDS011;48008;51.204;6.766;2022-12-18T03:56:35;18.02;;;7.93;;
62050;SDS011;48008;51.204;6.766;2022-12-18T03:59:08;17.33;;;7.82;;
62050;SDS011;48008;51.204;6.766;2022-12-18T04:01:40;17.50;;;7.93;;
62050;SDS011;48008;51.204;6.766;2022-12-18T04:04:13;17.27;;;7.60;;
62050;SDS011;48008;51.204;6.766;2022-12-18T04:06:43;17.30;;;7.70;;
62050;SDS011;48008;51.204;6.766;2022-12-18T04:09:13;15.85;;;7.55;;
62050;SDS011;48008;51.204;6.766;2022-12-18T04:11:45;17.15;;;7.53;;
62050;SDS011;48008;51.204;6.766;2022-12-18T04:14:14;17.67;;;7.65;;
62050;SDS011;48008;51.204;6.766;2022-12-18T04:16:43;16.85;;;7.78;;
62050;SDS011;48008;51.204;6.766;2022-12-18T04:19:13;18.25;;;7.95;;
62050;SDS011;48008;51.204;6.766;2022-12-18T04:21:42;16.60;;;7.70;;
62050;SDS011;48008;51.204;6.766;2022-12-18T04:24:10;19.40;;;7.88;;
62050;SDS011;48008;51.204;6.766;2022-12-18T04:26:41;15.40;;;7.28;;
62050;SDS011;48008;51.204;6.766;2022-12-18T04:29:13;16.98;;;7.68;;
62050;SDS011;48008;51.204;6.766;2022-12-18T04:31:39;20.33;;;8.43;;
62050;SDS011;48008;51.204;6.766;2022-12-18T04:34:06;19.05;;;7.38;;
62050;SDS011;48008;51.204;6.766;2022-12-18T04:36:39;16.25;;;7.18;;
62050;SDS011;48008;51.204;6.766;2022-12-18T04:39:06;17.23;;;7.40;;
62050;SDS011;48008;51.204;6.766;2022-12-18T04:41:33;18.65;;;7.88;;
62050;SDS011;48008;51.204;6.766;2022-12-18T04:44:00;18.13;;;7.60;;
62050;SDS011;48008;51.204;6.766;2022-12-18T04:46:27;19.13;;;8.25;;
62050;SDS011;48008;51.204;6.766;2022-12-18T04:48:54;17.55;;;7.63;;
62050;SDS011;48008;51.204;6.766;2022-12-18T04:51:21;20.50;;;8.50;;
62050;SDS011;48008;51.204;6.766;2022-12-18T04:53:51;18.98;;;7.90;;
62050;SDS011;48008;51.204;6.766;2022-12-18T04:56:18;18.23;;;7.90;;
62050;SDS011;48008;51.204;6.766;2022-12-18T04:58:46;20.23;;;8.18;;
62050;SDS011;48008;51.204;6.766;2022-12-18T05:01:13;15.30;;;7.65;;
62050;SDS011;48008;51.204;6.766;2022-12-18T05:03:41;16.80;;;7.45;;
62050;SDS011;48008;51.204;6.766;2022-12-18T05:06:08;19.17;;;7.82;;
62050;SDS011;48008;51.204;6.766;2022-12-18T05:08:36;16.23;;;7.18;;
62050;SDS011;48008;51.204;6.766;2022-12-18T05:11:03;16.80;;;7.25;;
62050;SDS011;48008;51.204;6.766;2022-12-18T05:13:33;17.43;;;7.17;;
62050;SDS011;48008;51.204;6.766;2022-12-18T05:16:02;15.88;;;6.80;;
62050;SDS011;48008;51.204;6.766;2022-12-18T05:18:29;20.83;;;8.48;;
62050;SDS011;48008;51.204;6.766;2022-12-18T05:20:56;15.88;;;7.32;;
62050;SDS011;48008;51.204;6.766;2022-12-18T05:23:24;19.30;;;8.25;;
62050;SDS011;48008;51.204;6.766;2022-12-18T05:25:52;16.63;;;6.75;;
62050;SDS011;48008;51.204;6.766;2022-12-18T05:28:20;17.40;;;7.72;;
62050;SDS011;48008;51.204;6.766;2022-12-18T05:30:48;18.58;;;7.68;;
62050;SDS011;48008;51.204;6.766;2022-12-18T05:33:17;15.82;;;7.55;;
62050;SDS011;48008;51.204;6.766;2022-12-18T05:35:50;16.58;;;6.80;;
62050;SDS011;48008;51.204;6.766;2022-12-18T05:38:19;16.17;;;6.97;;
62050;SDS011;48008;51.204;6.766;2022-12-18T05:40:48;15.40;;;6.97;;
62050;SDS011;48008;51.204;6.766;2022-12-18T05:43:16;18.98;;;7.30;;
62050;SDS011;48008;51.204;6.766;2022-12-18T05:45:46;17.70;;;7.22;;
62050;SDS011;48008;51.204;6.766;2022-12-18T05:48:14;19.92;;;7.40;;
62050;SDS011;48008;51.204;6.766;2022-12-18T05:50:43;16.52;;;6.75;;
62050;SDS011;48008;51.204;6.766;2022-12-18T05:53:12;16.85;;;7.05;;
62050;SDS011;48008;51.204;6.766;2022-12-18T05:55:40;14.45;;;7.07;;
62050;SDS011;48008;51.204;6.766;2022-12-18T05:58:08;15.90;;;6.88;;
62050;SDS011;48008;51.204;6.766;2022-12-18T06:00:38;15.52;;;7.35;;
62050;SDS011;48008;51.204;6.766;2022-12-18T06:03:07;19.70;;;8.05;;
62050;SDS011;48008;51.204;6.766;2022-12-18T06:05:35;17.90;;;7.53;;
62050;SDS011;48008;51.204;6.766;2022-12-18T06:08:03;18.48;;;7.47;;
62050;SDS011;48008;51.204;6.766;2022-12-18T06:10:30;18.27;;;7.28;;
62050;SDS011;48008;51.204;6.766;2022-12-18T06:12:58;18.15;;;7.45;;
62050;SDS011;48008;51.204;6.766;2022-12-18T06:15:24;16.80;;;6.78;;
62050;SDS011;48008;51.204;6.766;2022-12-18T06:17:51;18.10;;;7.00;;
62050;SDS011;48008;51.204;6.766;2022-12-18T06:20:18;15.98;;;7.07;;
62050;SDS011;48008;51.204;6.766;2022-12-18T06:22:45;20.85;;;8.15;;
62050;SDS011;48008;51.204;6.766;2022-12-18T06:25:12;16.90;;;7.63;;
62050;SDS011;48008;51.204;6.766;2022-12-18T06:27:39;14.65;;;6.70;;
62050;SDS011;48008;51.204;6.766;2022-12-18T06:30:06;16.55;;;7.00;;
62050;SDS011;48008;51.204;6.766;2022-12-18T06:32:34;17.13;;;7.78;;
62050;SDS011;48008;51.204;6.766;2022-12-18T06:35:01;16.27;;;7.20;;
62050;SDS011;48008;51.204;6.766;2022-12-18T06:37:27;16.83;;;7.55;;
62050;SDS011;48008;51.204;6.766;2022-12-18T06:39:55;16.95;;;7.45;;
62050;SDS011;48008;51.204;6.766;2022-12-18T06:42:23;15.68;;;7.15;;
62050;SDS011;48008;51.204;6.766;2022-12-18T06:44:50;17.48;;;8.07;;
62050;SDS011;48008;51.204;6.766;2022-12-18T06:47:17;17.08;;;7.18;;
62050;SDS011;48008;51.204;6.766;2022-12-18T06:49:44;16.23;;;7.32;;
62050;SDS011;48008;51.204;6.766;2022-12-18T06:52:11;17.30;;;7.45;;
62050;SDS011;48008;51.204;6.766;2022-12-18T06:54:38;18.13;;;7.78;;
62050;SDS011;48008;51.204;6.766;2022-12-18T06:57:04;17.08;;;7.30;;
62050;SDS011;48008;51.204;6.766;2022-12-18T06:59:31;16.65;;;7.57;;
62050;SDS011;48008;51.204;6.766;2022-12-18T07:01:59;20.98;;;7.75;;
62050;SDS011;48008;51.204;6.766;2022-12-18T07:04:28;18.48;;;7.78;;
62050;SDS011;48008;51.204;6.766;2022-12-18T07:06:56;15.32;;;6.90;;
62050;SDS011;48008;51.204;6.766;2022-12-18T07:09:23;19.23;;;7.65;;
62050;SDS011;48008;51.204;6.766;2022-12-18T07:11:50;16.20;;;7.32;;
62050;SDS011;48008;51.204;6.766;2022-12-18T07:14:17;16.75;;;7.30;;
62050;SDS011;48008;51.204;6.766;2022-12-18T07:16:43;17.85;;;7.28;;
62050;SDS011;48008;51.204;6.766;2022-12-18T07:19:10;17.25;;;7.18;;
62050;SDS011;48008;51.204;6.766;2022-12-18T07:21:37;15.45;;;6.95;;
62050;SDS011;48008;51.204;6.766;2022-12-18T07:24:04;18.58;;;7.43;;
62050;SDS011;48008;51.204;6.766;2022-12-18T07:26:31;16.67;;;7.40;;
62050;SDS011;48008;51.204;6.766;2022-12-18T07:28:59;19.83;;;7.15;;
62050;SDS011;48008;51.204;6.766;2022-12-18T07:31:25;17.50;;;7.22;;
62050;SDS011;48008;51.204;6.766;2022-12-18T07:33:52;17.65;;;7.30;;
62050;SDS011;48008;51.204;6.766;2022-12-18T07:36:22;15.27;;;6.70;;
62050;SDS011;48008;51.204;6.766;2022-12-18T07:38:49;14.70;;;6.55;;
62050;SDS011;48008;51.204;6.766;2022-12-18T07:41:17;17.65;;;7.28;;
62050;SDS011;48008;51.204;6.766;2022-12-18T07:43:45;16.80;;;7.05;;
62050;SDS011;48008;51.204;6.766;2022-12-18T07:46:12;16.88;;;6.63;;
62050;SDS011;48008;51.204;6.766;2022-12-18T07:48:40;17.00;;;7.30;;
62050;SDS011;48008;51.204;6.766;2022-12-18T07:51:08;17.15;;;7.20;;
62050;SDS011;48008;51.204;6.766;2022-12-18T07:53:39;16.67;;;6.78;;
62050;SDS011;48008;51.204;6.766;2022-12-18T07:56:08;15.10;;;7.45;;
62050;SDS011;48008;51.204;6.766;2022-12-18T07:58:51;14.80;;;6.05;;
62050;SDS011;48008;51.204;6.766;2022-12-18T08:01:18;17.27;;;6.70;;
62050;SDS011;48008;51.204;6.766;2022-12-18T08:03:45;20.35;;;7.68;;
62050;SDS011;48008;51.204;6.766;2022-12-18T08:06:12;18.27;;;6.88;;
62050;SDS011;48008;51.204;6.766;2022-12-18T08:08:39;16.08;;;7.25;;
62050;SDS011;48008;51.204;6.766;2022-12-18T08:11:07;19.88;;;7.15;;
62050;SDS011;48008;51.204;6.766;2022-12-18T08:13:34;16.70;;;7.60;;
62050;SDS011;48008;51.204;6.766;2022-12-18T08:16:02;16.00;;;7.13;;
62050;SDS011;48008;51.204;6.766;2022-12-18T08:18:32;17.70;;;7.47;;
62050;SDS011;48008;51.204;6.766;2022-12-18T08:21:16;20.48;;;7.88;;
62050;SDS011;48008;51.204;6.766;2022-12-18T08:23:44;23.52;;;7.70;;
62050;SDS011;48008;51.204;6.766;2022-12-18T08:26:11;18.58;;;7.97;;
62050;SDS011;48008;51.204;6.766;2022-12-18T08:28:39;16.05;;;6.75;;
62050;SDS011;48008;51.204;6.766;2022-12-18T08:31:06;15.02;;;7.13;;
62050;SDS011;48008;51.204;6.766;2022-12-18T08:33:34;19.00;;;7.13;;
62050;SDS011;48008;51.204;6.766;2022-12-18T08:36:01;20.33;;;7.78;;
62050;SDS011;48008;51.204;6.766;2022-12-18T08:38:29;19.48;;;7.10;;
62050;SDS011;48008;51.204;6.766;2022-12-18T08:40:59;17.55;;;7.38;;
62050;SDS011;48008;51.204;6.766;2022-12-18T08:43:32;18.15;;;7.93;;
62050;SDS011;48008;51.204;6.766;2022-12-18T08:46:19;16.83;;;7.50;;
62050;SDS011;48008;51.204;6.766;2022-12-18T08:48:47;18.65;;;7.18;;
62050;SDS011;48008;51.204;6.766;2022-12-18T08:51:16;16.75;;;7.43;;
62050;SDS011;48008;51.204;6.766;2022-12-18T08:53:43;14.90;;;7.03;;
62050;SDS011;48008;51.204;6.766;2022-12-18T08:56:11;16.55;;;7.47;;
62050;SDS011;48008;51.204;6.766;2022-12-18T08:58:38;17.20;;;6.93;;
62050;SDS011;48008;51.204;6.766;2022-12-18T09:01:06;15.85;;;7.63;;
62050;SDS011;48008;51.204;6.766;2022-12-18T09:03:35;19.65;;;7.82;;
62050;SDS011;48008;51.204;6.766;2022-12-18T09:06:03;17.52;;;7.82;;
62050;SDS011;48008;51.204;6.766;2022-12-18T09:08:30;18.55;;;8.00;;
62050;SDS011;48008;51.204;6.766;2022-12-18T09:10:57;17.77;;;7.70;;
62050;SDS011;48008;51.204;6.766;2022-12-18T09:13:23;17.45;;;7.93;;
62050;SDS011;48008;51.204;6.766;2022-12-18T09:15:51;17.90;;;8.10;;
62050;SDS011;48008;51.204;6.766;2022-12-18T09:18:20;17.27;;;7.20;;
62050;SDS011;48008;51.204;6.766;2022-12-18T09:20:48;17.15;;;7.70;;
62050;SDS011;48008;51.204;6.766;2022-12-18T09:23:18;20.05;;;7.78;;
62050;SDS011;48008;51.204;6.766;2022-12-18T09:25:45;17.05;;;7.20;;
62050;SDS011;48008;51.204;6.766;2022-12-18T09:28:16;20.85;;;8.20;;
62050;SDS011;48008;51.204;6.766;2022-12-18T09:33:12;16.83;;;7.63;;
62050;SDS011;48008;51.204;6.766;2022-12-18T09:35:39;18.65;;;8.45;;
62050;SDS011;48008;51.204;6.766;2022-12-18T09:38:08;17.02;;;7.20;;
62050;SDS011;48008;51.204;6.766;2022-12-18T09:40:41;18.80;;;9.02;;
62050;SDS011;48008;51.204;6.766;2022-12-18T09:43:13;18.23;;;8.20;;
62050;SDS011;48008;51.204;6.766;2022-12-18T09:45:45;19.63;;;7.97;;
62050;SDS011;48008;51.204;6.766;2022-12-18T09:48:19;17.15;;;7.95;;
62050;SDS011;48008;51.204;6.766;2022-12-18T09:50:50;17.88;;;7.38;;
62050;SDS011;48008;51.204;6.766;2022-12-18T09:53:23;20.67;;;8.30;;
62050;SDS011;48008;51.204;6.766;2022-12-18T09:55:53;19.17;;;8.15;;
62050;SDS011;48008;51.204;6.766;2022-12-18T09:58:55;19.63;;;7.90;;
62050;SDS011;48008;51.204;6.766;2022-12-18T10:01:14;19.67;;;7.88;;
62050;SDS011;48008;51.204;6.766;2022-12-18T10:03:47;16.88;;;7.43;;
62050;SDS011;48008;51.204;6.766;2022-12-18T10:06:49;16.17;;;7.93;;
62050;SDS011;48008;51.204;6.766;2022-12-18T10:09:42;15.73;;;7.35;;
62050;SDS011;48008;51.204;6.766;2022-12-18T10:12:04;15.20;;;7.30;;
62050;SDS011;48008;51.204;6.766;2022-12-18T10:20:54;13.20;;;5.93;;
62050;SDS011;48008;51.204;6.766;2022-12-18T10:23:29;19.30;;;8.30;;
62050;SDS011;48008;51.204;6.766;2022-12-18T10:26:18;18.10;;;8.15;;
62050;SDS011;48008;51.204;6.766;2022-12-18T10:28:45;17.45;;;8.20;;
62050;SDS011;48008;51.204;6.766;2022-12-18T10:31:14;21.15;;;7.38;;
62050;SDS011;48008;51.204;6.766;2022-12-18T10:33:44;20.33;;;8.15;;
62050;SDS011;48008;51.204;6.766;2022-12-18T10:36:11;17.42;;;7.93;;
62050;SDS011;48008;51.204;6.766;2022-12-18T10:38:38;19.65;;;7.50;;
62050;SDS011;48008;51.204;6.766;2022-12-18T10:41:06;16.23;;;7.80;;
62050;SDS011;48008;51.204;6.766;2022-12-18T10:44:10;22.77;;;7.85;;
62050;SDS011;48008;51.204;6.766;2022-12-18T10:46:54;18.13;;;6.80;;
62050;SDS011;48008;51.204;6.766;2022-12-18T10:49:31;18.80;;;8.13;;
62050;SDS011;48008;51.204;6.766;2022-12-18T10:52:15;16.52;;;7.53;;
62050;SDS011;48008;51.204;6.766;2022-12-18T10:54:47;17.85;;;7.32;;
62050;SDS011;48008;51.204;6.766;2022-12-18T10:57:17;17.02;;;7.95;;
62050;SDS011;48008;51.204;6.766;2022-12-18T10:59:57;17.20;;;7.85;;
62050;SDS011;48008;51.204;6.766;2022-12-18T11:02:40;17.08;;;7.43;;
62050;SDS011;48008;51.204;6.766;2022-12-18T11:07:54;13.20;;;6.63;;
62050;SDS011;48008;51.204;6.766;2022-12-18T11:10:23;17.17;;;7.38;;
62050;SDS011;48008;51.204;6.766;2022-12-18T11:12:54;16.10;;;7.28;;
62050;SDS011;48008;51.204;6.766;2022-12-18T11:15:23;17.73;;;7.82;;
62050;SDS011;48008;51.204;6.766;2022-12-18T11:17:53;23.27;;;8.60;;
62050;SDS011;48008;51.204;6.766;2022-12-18T11:20:27;19.50;;;7.82;;
62050;SDS011;48008;51.204;6.766;2022-12-18T11:22:59;20.52;;;9.15;;
62050;SDS011;48008;51.204;6.766;2022-12-18T11:25:29;18.20;;;8.43;;
62050;SDS011;48008;51.204;6.766;2022-12-18T11:27:59;16.00;;;7.55;;
62050;SDS011;48008;51.204;6.766;2022-12-18T11:30:32;19.40;;;8.38;;
62050;SDS011;48008;51.204;6.766;2022-12-18T11:33:04;17.45;;;8.35;;
62050;SDS011;48008;51.204;6.766;2022-12-18T11:35:42;19.17;;;8.85;;
62050;SDS011;48008;51.204;6.766;2022-12-18T11:38:23;18.38;;;8.02;;
62050;SDS011;48008;51.204;6.766;2022-12-18T11:40:58;18.00;;;8.50;;
62050;SDS011;48008;51.204;6.766;2022-12-18T11:43:33;20.30;;;9.45;;
62050;SDS011;48008;51.204;6.766;2022-12-18T11:46:08;20.00;;;8.38;;
62050;SDS011;48008;51.204;6.766;2022-12-18T11:48:44;18.17;;;8.27;;
62050;SDS011;48008;51.204;6.766;2022-12-18T11:51:36;18.65;;;8.57;;
62050;SDS011;48008;51.204;6.766;2022-12-18T11:54:15;26.38;;;9.68;;
62050;SDS011;48008;51.204;6.766;2022-12-18T11:56:51;19.48;;;8.95;;
62050;SDS011;48008;51.204;6.766;2022-12-18T11:59:27;23.55;;;9.27;;
62050;SDS011;48008;51.204;6.766;2022-12-18T12:05:00;22.17;;;8.95;;
62050;SDS011;48008;51.204;6.766;2022-12-18T12:07:53;20.00;;;8.80;;
62050;SDS011;48008;51.204;6.766;2022-12-18T12:10:37;18.98;;;8.85;;
62050;SDS011;48008;51.204;6.766;2022-12-18T12:16:35;23.38;;;9.50;;
62050;SDS011;48008;51.204;6.766;2022-12-18T12:19:15;24.48;;;9.23;;
62050;SDS011;48008;51.204;6.766;2022-12-18T12:22:40;23.92;;;9.32;;
62050;SDS011;48008;51.204;6.766;2022-12-18T12:25:18;21.23;;;9.50;;
62050;SDS011;48008;51.204;6.766;2022-12-18T12:28:12;25.15;;;9.98;;
62050;SDS011;48008;51.204;6.766;2022-12-18T12:30:58;20.23;;;9.25;;
62050;SDS011;48008;51.204;6.766;2022-12-18T12:39:45;25.67;;;9.75;;
62050;SDS011;48008;51.204;6.766;2022-12-18T12:42:16;22.70;;;10.50;;
62050;SDS011;48008;51.204;6.766;2022-12-18T12:45:16;27.20;;;11.40;;
62050;SDS011;48008;51.204;6.766;2022-12-18T12:47:53;30.08;;;10.18;;
62050;SDS011;48008;51.204;6.766;2022-12-18T12:50:20;26.02;;;11.02;;
62050;SDS011;48008;51.204;6.766;2022-12-18T12:52:50;22.77;;;10.40;;
62050;SDS011;48008;51.204;6.766;2022-12-18T12:55:21;20.90;;;9.95;;
62050;SDS011;48008;51.204;6.766;2022-12-18T13:01:01;20.60;;;10.25;;
62050;SDS011;48008;51.204;6.766;2022-12-18T13:03:45;20.38;;;9.73;;
62050;SDS011;48008;51.204;6.766;2022-12-18T13:06:32;21.63;;;9.80;;
62050;SDS011;48008;51.204;6.766;2022-12-18T13:09:20;23.25;;;10.60;;
62050;SDS011;48008;51.204;6.766;2022-12-18T13:11:48;28.00;;;10.98;;
62050;SDS011;48008;51.204;6.766;2022-12-18T13:14:37;26.80;;;10.85;;
62050;SDS011;48008;51.204;6.766;2022-12-18T13:20:04;21.20;;;9.93;;
62050;SDS011;48008;51.204;6.766;2022-12-18T13:22:35;26.85;;;10.98;;
62050;SDS011;48008;51.204;6.766;2022-12-18T13:25:41;23.48;;;10.35;;
62050;SDS011;48008;51.204;6.766;2022-12-18T13:28:00;25.45;;;10.90;;
62050;SDS011;48008;51.204;6.766;2022-12-18T13:35:53;27.10;;;11.38;;
62050;SDS011;48008;51.204;6.766;2022-12-18T13:41:38;23.88;;;10.88;;
62050;SDS011;48008;51.204;6.766;2022-12-18T13:43:54;24.60;;;10.57;;
62050;SDS011;48008;51.204;6.766;2022-12-18T13:46:26;26.17;;;11.82;;
62050;SDS011;48008;51.204;6.766;2022-12-18T13:48:56;25.50;;;11.80;;
62050;SDS011;48008;51.204;6.766;2022-12-18T13:51:31;24.17;;;11.70;;
62050;SDS011;48008;51.204;6.766;2022-12-18T13:54:00;24.30;;;11.75;;
62050;SDS011;48008;51.204;6.766;2022-12-18T13:56:32;23.52;;;10.93;;
62050;SDS011;48008;51.204;6.766;2022-12-18T13:59:17;25.25;;;11.70;;
62050;SDS011;48008;51.204;6.766;2022-12-18T14:01:56;23.77;;;11.88;;
62050;SDS011;48008;51.204;6.766;2022-12-18T14:04:30;30.13;;;12.52;;
62050;SDS011;48008;51.204;6.766;2022-12-18T14:07:06;29.10;;;13.82;;
62050;SDS011;48008;51.204;6.766;2022-12-18T14:09:39;29.85;;;11.88;;
62050;SDS011;48008;51.204;6.766;2022-12-18T14:12:14;25.45;;;11.35;;
62050;SDS011;48008;51.204;6.766;2022-12-18T14:15:03;28.63;;;11.18;;
62050;SDS011;48008;51.204;6.766;2022-12-18T14:17:39;28.77;;;11.30;;
62050;SDS011;48008;51.204;6.766;2022-12-18T14:20:12;25.08;;;12.02;;
62050;SDS011;48008;51.204;6.766;2022-12-18T14:22:44;27.60;;;12.93;;
62050;SDS011;48008;51.204;6.766;2022-12-18T14:25:15;26.80;;;12.43;;
62050;SDS011;48008;51.204;6.766;2022-12-18T14:27:47;25.30;;;11.52;;
62050;SDS011;48008;51.204;6.766;2022-12-18T14:30:28;28.15;;;11.05;;
62050;SDS011;48008;51.204;6.766;2022-12-18T14:35:41;27.95;;;12.65;;
62050;SDS011;48008;51.204;6.766;2022-12-18T14:38:21;28.92;;;12.35;;
62050;SDS011;48008;51.204;6.766;2022-12-18T14:40:52;24.02;;;10.95;;
62050;SDS011;48008;51.204;6.766;2022-12-18T14:43:20;28.73;;;12.77;;
62050;SDS011;48008;51.204;6.766;2022-12-18T14:45:47;27.25;;;12.18;;
62050;SDS011;48008;51.204;6.766;2022-12-18T14:48:16;26.45;;;12.75;;
62050;SDS011;48008;51.204;6.766;2022-12-18T14:50:54;22.77;;;11.15;;
62050;SDS011;48008;51.204;6.766;2022-12-18T14:53:26;25.55;;;11.98;;
62050;SDS011;48008;51.204;6.766;2022-12-18T14:55:59;25.52;;;9.98;;
62050;SDS011;48008;51.204;6.766;2022-12-18T14:58:27;32.35;;;13.48;;
62050;SDS011;48008;51.204;6.766;2022-12-18T15:00:54;25.58;;;11.98;;
62050;SDS011;48008;51.204;6.766;2022-12-18T15:03:21;30.52;;;12.88;;
62050;SDS011;48008;51.204;6.766;2022-12-18T15:05:48;27.38;;;12.32;;
62050;SDS011;48008;51.204;6.766;2022-12-18T15:08:34;28.20;;;12.55;;
62050;SDS011;48008;51.204;6.766;2022-12-18T15:11:03;28.42;;;12.75;;
62050;SDS011;48008;51.204;6.766;2022-12-18T15:13:32;27.60;;;12.40;;
62050;SDS011;48008;51.204;6.766;2022-12-18T15:16:00;28.02;;;13.23;;
62050;SDS011;48008;51.204;6.766;2022-12-18T15:18:31;30.35;;;13.23;;
62050;SDS011;48008;51.204;6.766;2022-12-18T15:21:09;29.00;;;12.98;;
62050;SDS011;48008;51.204;6.766;2022-12-18T15:26:21;26.48;;;12.95;;
62050;SDS011;48008;51.204;6.766;2022-12-18T15:28:51;29.92;;;13.00;;
62050;SDS011;48008;51.204;6.766;2022-12-18T15:31:24;27.90;;;13.40;;
62050;SDS011;48008;51.204;6.766;2022-12-18T15:36:33;31.90;;;13.82;;
62050;SDS011;48008;51.204;6.766;2022-12-18T15:39:03;33.05;;;13.60;;
62050;SDS011;48008;51.204;6.766;2022-12-18T15:41:31;29.15;;;13.32;;
62050;SDS011;48008;51.204;6.766;2022-12-18T15:43:59;33.13;;;14.40;;
62050;SDS011;48008;51.204;6.766;2022-12-18T15:46:26;27.10;;;13.13;;